createdAt,value
2017-03-07T00:00:26.436Z,929.99
2017-03-07T00:00:54.547Z,930.02
2017-03-07T00:01:22.530Z,930.07
2017-03-07T00:01:50.813Z,930.06
2017-03-07T00:02:19.099Z,930.05
2017-03-07T00:02:47.103Z,930.12
2017-03-07T00:03:15.394Z,930.13
2017-03-07T00:03:43.587Z,930.12
2017-03-07T00:04:11.921Z,930.12
2017-03-07T00:04:40.082Z,930.14
2017-03-07T00:05:08.138Z,930.16
2017-03-07T00:05:36.423Z,930.18
2017-03-07T00:06:04.654Z,930.16
2017-03-07T00:06:32.907Z,930.17
2017-03-07T00:07:01.132Z,930.16
2017-03-07T00:07:29.224Z,930.14
2017-03-07T00:07:57.330Z,930.18
2017-03-07T00:08:25.398Z,930.15
2017-03-07T00:08:53.724Z,930.18
2017-03-07T00:09:21.841Z,930.18
2017-03-07T00:09:49.996Z,930.22
2017-03-07T00:10:18.063Z,930.2
2017-03-07T00:10:46.284Z,930.21
2017-03-07T00:11:14.563Z,930.19
2017-03-07T00:11:42.763Z,930.24
2017-03-07T00:12:10.907Z,930.24
2017-03-07T00:12:39.181Z,930.23
2017-03-07T00:13:07.433Z,930.24
2017-03-07T00:13:35.722Z,930.23
2017-03-07T00:14:04.012Z,930.21
2017-03-07T00:14:32.403Z,930.22
2017-03-07T00:15:00.586Z,930.2
2017-03-07T00:15:28.630Z,930.21
2017-03-07T00:15:56.719Z,930.19
2017-03-07T00:16:24.815Z,930.19
2017-03-07T00:16:52.960Z,930.22
2017-03-07T00:17:21.083Z,930.23
2017-03-07T00:17:49.355Z,930.15
2017-03-07T00:18:17.604Z,930.19
2017-03-07T00:18:45.847Z,930.22
2017-03-07T00:19:14.066Z,930.23
2017-03-07T00:19:42.354Z,930.23
2017-03-07T00:20:10.613Z,930.2
2017-03-07T00:20:38.878Z,930.21
2017-03-07T00:21:07.019Z,930.21
2017-03-07T00:21:35.220Z,930.21
2017-03-07T00:22:03.251Z,930.2
2017-03-07T00:22:31.352Z,930.16
2017-03-07T00:22:59.475Z,930.2
2017-03-07T00:23:27.744Z,930.22
2017-03-07T00:23:55.796Z,930.2
2017-03-07T00:24:24.123Z,930.21
2017-03-07T00:24:52.437Z,930.18
2017-03-07T00:25:20.446Z,930.19
2017-03-07T00:25:48.561Z,930.2
2017-03-07T00:26:16.743Z,930.23
2017-03-07T00:26:45.026Z,930.22
2017-03-07T00:27:13.188Z,930.23
2017-03-07T00:27:41.366Z,930.21
2017-03-07T00:28:09.362Z,930.2
2017-03-07T00:28:37.598Z,930.23
2017-03-07T00:29:05.746Z,930.26
2017-03-07T00:29:33.955Z,930.24
2017-03-07T00:30:02.088Z,930.26
2017-03-07T00:30:30.345Z,930.27
2017-03-07T00:30:58.351Z,930.3
2017-03-07T00:31:26.617Z,930.3
2017-03-07T00:31:54.775Z,930.3
2017-03-07T00:32:22.964Z,930.3
2017-03-07T00:32:51.142Z,930.32
2017-03-07T00:33:19.324Z,930.32
2017-03-07T00:33:47.404Z,930.37
2017-03-07T00:34:15.496Z,930.35
2017-03-07T00:34:43.919Z,930.35
2017-03-07T00:35:11.990Z,930.38
2017-03-07T00:35:40.224Z,930.36
2017-03-07T00:36:08.293Z,930.41
2017-03-07T00:36:36.567Z,930.42
2017-03-07T00:37:04.775Z,930.41
2017-03-07T00:37:32.782Z,930.42
2017-03-07T00:38:00.815Z,930.41
2017-03-07T00:38:28.979Z,930.46
2017-03-07T00:38:57.154Z,930.46
2017-03-07T00:39:25.231Z,930.49
2017-03-07T00:39:53.588Z,930.45
2017-03-07T00:40:21.840Z,930.45
2017-03-07T00:40:50.054Z,930.49
2017-03-07T00:41:18.259Z,930.47
2017-03-07T00:41:46.314Z,930.48
2017-03-07T00:42:14.469Z,930.49
2017-03-07T00:42:42.657Z,930.47
2017-03-07T00:43:10.817Z,930.47
2017-03-07T00:43:39.075Z,930.46
2017-03-07T00:44:07.361Z,930.44
2017-03-07T00:44:35.602Z,930.43
2017-03-07T00:45:03.649Z,930.41
2017-03-07T00:45:31.539Z,930.45
2017-03-07T00:45:59.653Z,930.38
2017-03-07T00:46:27.789Z,930.39
2017-03-07T00:46:56.015Z,930.37
2017-03-07T00:47:24.288Z,930.34
2017-03-07T00:47:52.329Z,930.42
2017-03-07T00:48:20.433Z,930.43
2017-03-07T00:48:48.551Z,930.41
2017-03-07T00:49:16.746Z,930.42
2017-03-07T00:49:45.035Z,930.45
2017-03-07T00:50:13.082Z,930.47
2017-03-07T00:50:41.292Z,930.48
2017-03-07T00:51:09.393Z,930.52
2017-03-07T00:51:37.599Z,930.5
2017-03-07T00:52:05.914Z,930.5
2017-03-07T00:52:34.204Z,930.56
2017-03-07T00:53:02.507Z,930.53
2017-03-07T00:53:30.762Z,930.56
2017-03-07T00:53:58.941Z,930.57
2017-03-07T00:54:27.037Z,930.59
2017-03-07T00:54:55.294Z,930.58
2017-03-07T00:55:23.538Z,930.59
2017-03-07T00:55:51.866Z,930.58
2017-03-07T00:56:19.992Z,930.6
2017-03-07T00:56:48.250Z,930.61
2017-03-07T00:57:16.382Z,930.61
2017-03-07T00:57:44.601Z,930.61
2017-03-07T00:58:12.790Z,930.62
2017-03-07T00:58:40.933Z,930.62
2017-03-07T00:59:09.055Z,930.6
2017-03-07T00:59:37.201Z,930.6
2017-03-07T01:00:05.389Z,930.63
2017-03-07T01:00:33.682Z,930.59
2017-03-07T01:01:01.740Z,930.57
2017-03-07T01:01:29.998Z,930.61
2017-03-07T01:01:58.026Z,930.59
2017-03-07T01:02:26.207Z,930.58
2017-03-07T01:02:54.365Z,930.57
2017-03-07T01:03:22.684Z,930.55
2017-03-07T01:03:50.787Z,930.54
2017-03-07T01:04:19.019Z,930.57
2017-03-07T01:04:47.215Z,930.58
2017-03-07T01:05:15.408Z,930.57
2017-03-07T01:05:43.505Z,930.57
2017-03-07T01:06:11.518Z,930.54
2017-03-07T01:06:39.725Z,930.58
2017-03-07T01:07:07.884Z,930.61
2017-03-07T01:07:36.087Z,930.6
2017-03-07T01:08:04.271Z,930.58
2017-03-07T01:08:32.457Z,930.58
2017-03-07T01:09:00.686Z,930.59
2017-03-07T01:09:28.803Z,930.57
2017-03-07T01:09:57.117Z,930.62
2017-03-07T01:10:25.416Z,930.63
2017-03-07T01:10:53.508Z,930.61
2017-03-07T01:11:21.606Z,930.61
2017-03-07T01:11:49.639Z,930.65
2017-03-07T01:12:17.820Z,930.66
2017-03-07T01:12:45.983Z,930.7
2017-03-07T01:13:13.942Z,930.67
2017-03-07T01:13:42.194Z,930.68
2017-03-07T01:14:10.339Z,930.68
2017-03-07T01:14:38.632Z,930.69
2017-03-07T01:15:06.716Z,930.71
2017-03-07T01:15:35.012Z,930.72
2017-03-07T01:16:02.977Z,930.68
2017-03-07T01:16:31.139Z,930.69
2017-03-07T01:16:59.391Z,930.7
2017-03-07T01:17:27.588Z,930.71
2017-03-07T01:17:55.723Z,930.71
2017-03-07T01:18:23.980Z,930.71
2017-03-07T01:18:52.157Z,930.74
2017-03-07T01:19:20.407Z,930.78
2017-03-07T01:19:48.720Z,930.75
2017-03-07T01:20:16.742Z,930.75
2017-03-07T01:20:44.969Z,930.76
2017-03-07T01:21:13.427Z,930.74
2017-03-07T01:21:41.687Z,930.78
2017-03-07T01:22:09.785Z,930.79
2017-03-07T01:22:38.094Z,930.76
2017-03-07T01:23:06.420Z,930.83
2017-03-07T01:23:34.529Z,930.77
2017-03-07T01:24:02.651Z,930.8
2017-03-07T01:25:13.983Z,930.79
2017-03-07T01:25:42.295Z,930.76
2017-03-07T01:26:10.418Z,930.76
2017-03-07T01:26:38.727Z,930.76
2017-03-07T01:27:06.797Z,930.75
2017-03-07T01:27:35.069Z,930.74
2017-03-07T01:28:03.199Z,930.75
2017-03-07T01:28:31.347Z,930.7
2017-03-07T01:28:59.568Z,930.7
2017-03-07T01:29:27.737Z,930.71
2017-03-07T01:29:55.844Z,930.71
2017-03-07T01:30:24.045Z,930.66
2017-03-07T01:30:52.155Z,930.69
2017-03-07T01:31:20.319Z,930.66
2017-03-07T01:31:48.493Z,930.7
2017-03-07T01:32:16.787Z,930.7
2017-03-07T01:32:44.852Z,930.69
2017-03-07T01:33:13.131Z,930.68
2017-03-07T01:33:41.332Z,930.7
2017-03-07T01:34:09.507Z,930.68
2017-03-07T01:34:37.605Z,930.7
2017-03-07T01:35:05.841Z,930.69
2017-03-07T01:35:33.995Z,930.75
2017-03-07T01:36:02.243Z,930.72
2017-03-07T01:36:30.393Z,930.72
2017-03-07T01:36:58.374Z,930.71
2017-03-07T01:37:26.667Z,930.72
2017-03-07T01:37:54.791Z,930.71
2017-03-07T01:38:23.022Z,930.71
2017-03-07T01:38:51.269Z,930.71
2017-03-07T01:39:19.470Z,930.7
2017-03-07T01:39:47.700Z,930.69
2017-03-07T01:40:15.947Z,930.66
2017-03-07T01:40:44.132Z,930.66
2017-03-07T01:41:12.300Z,930.68
2017-03-07T01:41:40.490Z,930.68
2017-03-07T01:42:08.692Z,930.63
2017-03-07T01:42:36.967Z,930.65
2017-03-07T01:43:05.067Z,930.67
2017-03-07T01:43:33.115Z,930.68
2017-03-07T01:44:01.262Z,930.62
2017-03-07T01:44:29.373Z,930.68
2017-03-07T01:44:57.673Z,930.68
2017-03-07T01:45:26.005Z,930.7
2017-03-07T01:45:53.977Z,930.69
2017-03-07T01:46:22.228Z,930.69
2017-03-07T01:46:50.407Z,930.68
2017-03-07T01:47:18.691Z,930.71
2017-03-07T01:47:46.760Z,930.68
2017-03-07T01:48:14.944Z,930.66
2017-03-07T01:48:43.063Z,930.64
2017-03-07T01:49:11.152Z,930.62
2017-03-07T01:49:39.411Z,930.64
2017-03-07T01:50:07.679Z,930.59
2017-03-07T01:50:35.883Z,930.57
2017-03-07T01:51:03.834Z,930.52
2017-03-07T01:51:32.115Z,930.5
2017-03-07T01:52:00.271Z,930.48
2017-03-07T01:52:28.514Z,930.43
2017-03-07T01:52:56.735Z,930.42
2017-03-07T01:53:24.837Z,930.38
2017-03-07T01:53:53.019Z,930.36
2017-03-07T01:54:21.096Z,930.34
2017-03-07T01:54:49.287Z,930.28
2017-03-07T01:55:17.677Z,930.27
2017-03-07T01:55:45.817Z,930.28
2017-03-07T01:56:14.074Z,930.26
2017-03-07T01:56:42.244Z,930.25
2017-03-07T01:57:10.289Z,930.24
2017-03-07T01:57:38.482Z,930.26
2017-03-07T01:58:06.580Z,930.24
2017-03-07T01:58:34.854Z,930.24
2017-03-07T01:59:03.143Z,930.24
2017-03-07T01:59:31.346Z,930.26
2017-03-07T01:59:59.597Z,930.3
2017-03-07T02:00:27.702Z,930.27
2017-03-07T02:00:56.008Z,930.27
2017-03-07T02:01:24.150Z,930.24
2017-03-07T02:01:52.460Z,930.25
2017-03-07T02:02:20.526Z,930.24
2017-03-07T02:02:48.608Z,930.21
2017-03-07T02:03:16.903Z,930.23
2017-03-07T02:03:45.028Z,930.18
2017-03-07T02:04:13.278Z,930.22
2017-03-07T02:04:41.500Z,930.18
2017-03-07T02:05:09.601Z,930.19
2017-03-07T02:05:37.889Z,930.14
2017-03-07T02:06:06.058Z,930.13
2017-03-07T02:06:34.276Z,930.17
2017-03-07T02:07:02.428Z,930.14
2017-03-07T02:07:30.435Z,930.12
2017-03-07T02:07:58.717Z,930.12
2017-03-07T02:08:26.911Z,930.14
2017-03-07T02:08:55.133Z,930.1
2017-03-07T02:09:23.316Z,930.16
2017-03-07T02:09:51.511Z,930.12
2017-03-07T02:10:19.705Z,930.14
2017-03-07T02:10:47.955Z,930.17
2017-03-07T02:11:16.266Z,930.18
2017-03-07T02:11:44.488Z,930.2
2017-03-07T02:12:12.455Z,930.2
2017-03-07T02:12:40.661Z,930.22
2017-03-07T02:13:08.871Z,930.21
2017-03-07T02:13:37.052Z,930.24
2017-03-07T02:14:05.327Z,930.21
2017-03-07T02:14:33.429Z,930.23
2017-03-07T02:15:01.713Z,930.21
2017-03-07T02:15:29.758Z,930.25
2017-03-07T02:15:57.859Z,930.25
2017-03-07T02:16:26.067Z,930.25
2017-03-07T02:16:54.295Z,930.23
2017-03-07T02:17:22.656Z,930.25
2017-03-07T02:17:50.829Z,930.25
2017-03-07T02:18:18.991Z,930.26
2017-03-07T02:18:47.079Z,930.26
2017-03-07T02:19:15.277Z,930.3
2017-03-07T02:19:43.502Z,930.3
2017-03-07T02:20:11.585Z,930.32
2017-03-07T02:20:39.806Z,930.32
2017-03-07T02:21:07.861Z,930.32
2017-03-07T02:21:36.037Z,930.33
2017-03-07T02:22:04.179Z,930.37
2017-03-07T02:22:32.385Z,930.37
2017-03-07T02:23:00.511Z,930.38
2017-03-07T02:23:28.482Z,930.4
2017-03-07T02:23:56.682Z,930.41
2017-03-07T02:24:24.875Z,930.41
2017-03-07T02:24:53.187Z,930.43
2017-03-07T02:25:21.324Z,930.42
2017-03-07T02:25:49.580Z,930.43
2017-03-07T02:26:17.706Z,930.45
2017-03-07T02:26:46.013Z,930.46
2017-03-07T02:27:14.123Z,930.42
2017-03-07T02:27:42.322Z,930.4
2017-03-07T02:28:10.513Z,930.43
2017-03-07T02:28:38.719Z,930.4
2017-03-07T02:29:07.007Z,930.41
2017-03-07T02:29:35.277Z,930.4
2017-03-07T02:30:03.249Z,930.4
2017-03-07T02:30:31.429Z,930.37
2017-03-07T02:30:59.663Z,930.37
2017-03-07T02:31:27.926Z,930.37
2017-03-07T02:31:56.009Z,930.36
2017-03-07T02:32:24.194Z,930.35
2017-03-07T02:32:52.511Z,930.38
2017-03-07T02:33:20.579Z,930.35
2017-03-07T02:33:48.856Z,930.35
2017-03-07T02:34:16.942Z,930.34
2017-03-07T02:34:45.281Z,930.36
2017-03-07T02:35:13.472Z,930.31
2017-03-07T02:35:41.633Z,930.34
2017-03-07T02:36:09.825Z,930.34
2017-03-07T02:36:38.050Z,930.34
2017-03-07T02:37:06.472Z,930.32
2017-03-07T02:37:34.567Z,930.32
2017-03-07T02:38:02.526Z,930.34
2017-03-07T02:38:30.662Z,930.36
2017-03-07T02:38:58.663Z,930.35
2017-03-07T02:39:26.762Z,930.35
2017-03-07T02:39:54.966Z,930.34
2017-03-07T02:40:23.250Z,930.42
2017-03-07T02:40:51.495Z,930.4
2017-03-07T02:41:19.688Z,930.41
2017-03-07T02:41:47.795Z,930.42
2017-03-07T02:42:15.921Z,930.43
2017-03-07T02:42:44.065Z,930.44
2017-03-07T02:43:12.178Z,930.44
2017-03-07T02:43:40.387Z,930.47
2017-03-07T02:44:08.455Z,930.47
2017-03-07T02:44:36.677Z,930.49
2017-03-07T02:45:04.932Z,930.5
2017-03-07T02:45:32.982Z,930.53
2017-03-07T02:46:01.300Z,930.52
2017-03-07T02:46:29.458Z,930.55
2017-03-07T02:46:57.582Z,930.54
2017-03-07T02:47:25.864Z,930.52
2017-03-07T02:47:53.886Z,930.52
2017-03-07T02:48:22.090Z,930.57
2017-03-07T02:48:50.239Z,930.59
2017-03-07T02:49:18.439Z,930.59
2017-03-07T02:49:46.669Z,930.6
2017-03-07T02:50:14.860Z,930.59
2017-03-07T02:50:43.147Z,930.6
2017-03-07T02:51:11.400Z,930.59
2017-03-07T02:51:39.582Z,930.61
2017-03-07T02:52:07.769Z,930.6
2017-03-07T02:52:35.946Z,930.64
2017-03-07T02:53:04.197Z,930.66
2017-03-07T02:53:32.425Z,930.63
2017-03-07T02:54:00.577Z,930.64
2017-03-07T02:54:28.865Z,930.66
2017-03-07T02:54:57.126Z,930.61
2017-03-07T02:55:25.285Z,930.62
2017-03-07T02:55:53.282Z,930.66
2017-03-07T02:56:21.362Z,930.64
2017-03-07T02:56:49.468Z,930.66
2017-03-07T02:57:17.666Z,930.65
2017-03-07T02:57:45.849Z,930.65
2017-03-07T02:58:14.013Z,930.67
2017-03-07T02:58:42.223Z,930.68
2017-03-07T02:59:10.299Z,930.69
2017-03-07T02:59:38.392Z,930.67
2017-03-07T03:00:06.264Z,930.66
2017-03-07T03:00:34.439Z,930.68
2017-03-07T03:01:02.810Z,930.69
2017-03-07T03:01:31.076Z,930.68
2017-03-07T03:01:59.291Z,930.7
2017-03-07T03:02:27.575Z,930.68
2017-03-07T03:02:55.875Z,930.68
2017-03-07T03:03:23.955Z,930.68
2017-03-07T03:03:52.016Z,930.72
2017-03-07T03:04:20.259Z,930.67
2017-03-07T03:04:48.463Z,930.69
2017-03-07T03:05:16.660Z,930.7
2017-03-07T03:05:44.799Z,930.7
2017-03-07T03:06:12.867Z,930.68
2017-03-07T03:06:40.964Z,930.66
2017-03-07T03:07:09.243Z,930.62
2017-03-07T03:07:37.368Z,930.64
2017-03-07T03:08:05.457Z,930.65
2017-03-07T03:08:33.625Z,930.68
2017-03-07T03:09:01.809Z,930.68
2017-03-07T03:09:29.859Z,930.65
2017-03-07T03:09:58.072Z,930.61
2017-03-07T03:10:26.205Z,930.64
2017-03-07T03:10:54.722Z,930.63
2017-03-07T03:11:22.737Z,930.61
2017-03-07T03:11:50.628Z,930.63
2017-03-07T03:12:18.777Z,930.65
2017-03-07T03:12:46.900Z,930.62
2017-03-07T03:13:14.945Z,930.63
2017-03-07T03:13:42.930Z,930.62
2017-03-07T03:14:10.992Z,930.66
2017-03-07T03:14:39.131Z,930.64
2017-03-07T03:15:07.210Z,930.64
2017-03-07T03:15:35.480Z,930.62
2017-03-07T03:16:03.864Z,930.61
2017-03-07T03:16:31.952Z,930.57
2017-03-07T03:17:00.074Z,930.6
2017-03-07T03:17:28.274Z,930.59
2017-03-07T03:17:56.318Z,930.62
2017-03-07T03:18:24.479Z,930.55
2017-03-07T03:18:52.559Z,930.57
2017-03-07T03:19:20.863Z,930.57
2017-03-07T03:19:48.950Z,930.59
2017-03-07T03:20:17.060Z,930.55
2017-03-07T03:20:45.058Z,930.54
2017-03-07T03:21:13.232Z,930.51
2017-03-07T03:21:41.519Z,930.52
2017-03-07T03:22:09.611Z,930.5
2017-03-07T03:22:37.787Z,930.47
2017-03-07T03:23:05.782Z,930.46
2017-03-07T03:23:33.915Z,930.45
2017-03-07T03:24:02.207Z,930.43
2017-03-07T03:24:30.292Z,930.41
2017-03-07T03:24:58.488Z,930.43
2017-03-07T03:25:26.679Z,930.43
2017-03-07T03:25:54.923Z,930.45
2017-03-07T03:26:23.238Z,930.4
2017-03-07T03:26:51.442Z,930.43
2017-03-07T03:27:19.660Z,930.38
2017-03-07T03:27:47.943Z,930.43
2017-03-07T03:28:16.012Z,930.4
2017-03-07T03:28:44.056Z,930.42
2017-03-07T03:29:12.137Z,930.42
2017-03-07T03:29:40.772Z,930.4
2017-03-07T03:30:08.900Z,930.42
2017-03-07T03:30:36.982Z,930.39
2017-03-07T03:31:05.162Z,930.4
2017-03-07T03:31:33.325Z,930.4
2017-03-07T03:32:01.472Z,930.38
2017-03-07T03:32:29.680Z,930.37
2017-03-07T03:32:58.011Z,930.41
2017-03-07T03:33:26.291Z,930.4
2017-03-07T03:33:54.595Z,930.4
2017-03-07T03:34:22.683Z,930.4
2017-03-07T03:34:50.873Z,930.38
2017-03-07T03:35:18.976Z,930.42
2017-03-07T03:35:47.147Z,930.42
2017-03-07T03:36:15.562Z,930.4
2017-03-07T03:36:43.749Z,930.39
2017-03-07T03:37:11.993Z,930.38
2017-03-07T03:37:39.987Z,930.4
2017-03-07T03:38:08.250Z,930.38
2017-03-07T03:38:36.515Z,930.42
2017-03-07T03:39:04.631Z,930.39
2017-03-07T03:39:32.723Z,930.4
2017-03-07T03:40:00.800Z,930.41
2017-03-07T03:40:29.005Z,930.41
2017-03-07T03:40:57.025Z,930.42
2017-03-07T03:41:25.148Z,930.45
2017-03-07T03:41:53.227Z,930.45
2017-03-07T03:42:21.289Z,930.45
2017-03-07T03:42:49.556Z,930.44
2017-03-07T03:43:17.817Z,930.45
2017-03-07T03:43:45.990Z,930.45
2017-03-07T03:44:14.187Z,930.47
2017-03-07T03:44:42.350Z,930.47
2017-03-07T03:45:10.618Z,930.45
2017-03-07T03:45:38.738Z,930.47
2017-03-07T03:46:07.020Z,930.49
2017-03-07T03:46:35.222Z,930.5
2017-03-07T03:47:03.498Z,930.49
2017-03-07T03:47:31.634Z,930.48
2017-03-07T03:47:59.895Z,930.5
2017-03-07T03:48:28.073Z,930.48
2017-03-07T03:48:56.235Z,930.5
2017-03-07T03:49:24.320Z,930.5
2017-03-07T03:49:52.495Z,930.5
2017-03-07T03:50:20.728Z,930.48
2017-03-07T03:50:48.794Z,930.47
2017-03-07T03:51:17.008Z,930.45
2017-03-07T03:51:45.115Z,930.47
2017-03-07T03:52:13.178Z,930.48
2017-03-07T03:52:41.291Z,930.45
2017-03-07T03:53:09.472Z,930.42
2017-03-07T03:53:37.539Z,930.45
2017-03-07T03:54:05.832Z,930.43
2017-03-07T03:54:34.096Z,930.44
2017-03-07T03:55:02.273Z,930.41
2017-03-07T03:55:30.576Z,930.41
2017-03-07T03:55:58.859Z,930.42
2017-03-07T03:56:27.046Z,930.41
2017-03-07T03:56:55.094Z,930.34
2017-03-07T03:57:23.264Z,930.38
2017-03-07T03:57:51.450Z,930.35
2017-03-07T03:58:19.771Z,930.38
2017-03-07T03:58:48.074Z,930.35
2017-03-07T03:59:16.316Z,930.36
2017-03-07T03:59:44.467Z,930.36
2017-03-07T04:00:12.625Z,930.33
2017-03-07T04:00:40.684Z,930.33
2017-03-07T04:01:08.858Z,930.36
2017-03-07T04:01:37.031Z,930.31
2017-03-07T04:02:05.311Z,930.35
2017-03-07T04:02:33.498Z,930.34
2017-03-07T04:03:01.717Z,930.33
2017-03-07T04:03:29.856Z,930.3
2017-03-07T04:03:57.970Z,930.37
2017-03-07T04:04:26.049Z,930.39
2017-03-07T04:04:54.294Z,930.39
2017-03-07T04:05:22.494Z,930.39
2017-03-07T04:05:50.732Z,930.38
2017-03-07T04:06:19.097Z,930.37
2017-03-07T04:06:47.280Z,930.38
2017-03-07T04:07:15.330Z,930.36
2017-03-07T04:07:43.631Z,930.36
2017-03-07T04:08:11.896Z,930.36
2017-03-07T04:08:39.982Z,930.36
2017-03-07T04:09:08.118Z,930.35
2017-03-07T04:09:36.386Z,930.34
2017-03-07T04:10:04.360Z,930.34
2017-03-07T04:10:32.608Z,930.31
2017-03-07T04:11:00.728Z,930.35
2017-03-07T04:11:29.165Z,930.32
2017-03-07T04:11:57.320Z,930.33
2017-03-07T04:12:25.407Z,930.29
2017-03-07T04:12:53.529Z,930.31
2017-03-07T04:13:21.734Z,930.29
2017-03-07T04:13:50.016Z,930.29
2017-03-07T04:14:18.229Z,930.3
2017-03-07T04:14:46.287Z,930.3
2017-03-07T04:15:14.312Z,930.28
2017-03-07T04:15:42.434Z,930.28
2017-03-07T04:16:10.678Z,930.3
2017-03-07T04:16:38.904Z,930.32
2017-03-07T04:17:06.896Z,930.3
2017-03-07T04:17:35.067Z,930.3
2017-03-07T04:18:03.237Z,930.32
2017-03-07T04:18:31.430Z,930.28
2017-03-07T04:18:59.729Z,930.33
2017-03-07T04:19:27.813Z,930.31
2017-03-07T04:19:56.085Z,930.33
2017-03-07T04:20:24.343Z,930.35
2017-03-07T04:20:52.528Z,930.33
2017-03-07T04:21:20.802Z,930.34
2017-03-07T04:21:48.964Z,930.35
2017-03-07T04:22:17.186Z,930.37
2017-03-07T04:22:45.340Z,930.36
2017-03-07T04:23:13.566Z,930.34
2017-03-07T04:23:41.694Z,930.31
2017-03-07T04:24:09.958Z,930.31
2017-03-07T04:24:38.123Z,930.32
2017-03-07T04:25:06.251Z,930.31
2017-03-07T04:25:34.474Z,930.31
2017-03-07T04:26:02.575Z,930.3
2017-03-07T04:26:30.649Z,930.32
2017-03-07T04:26:58.838Z,930.3
2017-03-07T04:27:26.851Z,930.26
2017-03-07T04:27:54.981Z,930.29
2017-03-07T04:28:23.108Z,930.28
2017-03-07T04:28:51.195Z,930.25
2017-03-07T04:29:19.299Z,930.28
2017-03-07T04:29:47.456Z,930.27
2017-03-07T04:30:15.673Z,930.28
2017-03-07T04:30:43.831Z,930.29
2017-03-07T04:31:11.998Z,930.24
2017-03-07T04:31:40.241Z,930.28
2017-03-07T04:32:08.207Z,930.26
2017-03-07T04:32:36.520Z,930.23
2017-03-07T04:33:04.791Z,930.26
2017-03-07T04:33:32.891Z,930.23
2017-03-07T04:34:01.079Z,930.2
2017-03-07T04:34:29.290Z,930.22
2017-03-07T04:34:57.371Z,930.18
2017-03-07T04:35:25.524Z,930.16
2017-03-07T04:35:53.630Z,930.12
2017-03-07T04:36:21.807Z,930.16
2017-03-07T04:36:50.059Z,930.16
2017-03-07T04:37:18.303Z,930.08
2017-03-07T04:37:46.653Z,930.07
2017-03-07T04:38:14.861Z,930.05
2017-03-07T04:38:43.006Z,930.03
2017-03-07T04:39:11.093Z,930.01
2017-03-07T04:39:39.260Z,929.99
2017-03-07T04:40:07.365Z,929.98
2017-03-07T04:40:35.521Z,929.92
2017-03-07T04:41:03.667Z,929.94
2017-03-07T04:41:31.702Z,929.9
2017-03-07T04:41:59.753Z,929.9
2017-03-07T04:42:28.032Z,929.89
2017-03-07T04:42:56.229Z,929.84
2017-03-07T04:43:24.495Z,929.84
2017-03-07T04:43:52.755Z,929.86
2017-03-07T04:44:20.879Z,929.83
2017-03-07T04:44:49.038Z,929.82
2017-03-07T04:45:17.372Z,929.84
2017-03-07T04:45:45.468Z,929.87
2017-03-07T04:46:13.795Z,929.83
2017-03-07T04:46:41.957Z,929.84
2017-03-07T04:47:10.275Z,929.84
2017-03-07T04:47:38.465Z,929.8
2017-03-07T04:48:06.761Z,929.79
2017-03-07T04:48:34.963Z,929.74
2017-03-07T04:49:03.158Z,929.74
2017-03-07T04:49:31.246Z,929.74
2017-03-07T04:49:59.291Z,929.75
2017-03-07T04:50:27.567Z,929.74
2017-03-07T04:50:55.803Z,929.71
2017-03-07T04:51:24.093Z,929.74
2017-03-07T04:51:52.272Z,929.71
2017-03-07T04:52:20.527Z,929.74
2017-03-07T04:52:48.755Z,929.73
2017-03-07T04:53:17.044Z,929.76
2017-03-07T04:53:45.201Z,929.7
2017-03-07T04:54:13.493Z,929.71
2017-03-07T04:54:41.669Z,929.71
2017-03-07T04:55:09.961Z,929.71
2017-03-07T04:55:38.038Z,929.7
2017-03-07T04:56:06.303Z,929.68
2017-03-07T04:56:34.374Z,929.67
2017-03-07T04:57:02.642Z,929.66
2017-03-07T04:57:30.714Z,929.63
2017-03-07T04:57:58.761Z,929.65
2017-03-07T04:58:27.049Z,929.63
2017-03-07T04:58:55.253Z,929.58
2017-03-07T04:59:23.391Z,929.59
2017-03-07T04:59:51.417Z,929.59
2017-03-07T05:00:19.564Z,929.59
2017-03-07T05:00:47.758Z,929.58
2017-03-07T05:01:15.958Z,929.57
2017-03-07T05:01:44.133Z,929.53
2017-03-07T05:02:12.132Z,929.51
2017-03-07T05:02:40.334Z,929.52
2017-03-07T05:03:08.501Z,929.51
2017-03-07T05:03:36.612Z,929.5
2017-03-07T05:04:04.901Z,929.47
2017-03-07T05:04:33.114Z,929.46
2017-03-07T05:05:01.274Z,929.49
2017-03-07T05:05:29.418Z,929.5
2017-03-07T05:05:57.556Z,929.46
2017-03-07T05:06:25.703Z,929.51
2017-03-07T05:06:53.806Z,929.49
2017-03-07T05:07:22.010Z,929.52
2017-03-07T05:07:50.456Z,929.51
2017-03-07T05:08:18.561Z,929.51
2017-03-07T05:08:46.605Z,929.53
2017-03-07T05:09:14.858Z,929.52
2017-03-07T05:09:43.068Z,929.51
2017-03-07T05:10:10.986Z,929.51
2017-03-07T05:10:39.086Z,929.49
2017-03-07T05:11:07.238Z,929.49
2017-03-07T05:11:35.425Z,929.5
2017-03-07T05:12:03.574Z,929.47
2017-03-07T05:12:31.898Z,929.47
2017-03-07T05:13:00.323Z,929.45
2017-03-07T05:13:28.558Z,929.45
2017-03-07T05:13:56.653Z,929.39
2017-03-07T05:14:24.667Z,929.39
2017-03-07T05:14:52.795Z,929.4
2017-03-07T05:15:20.803Z,929.4
2017-03-07T05:15:49.075Z,929.38
2017-03-07T05:16:17.238Z,929.35
2017-03-07T05:16:45.353Z,929.34
2017-03-07T05:17:13.503Z,929.32
2017-03-07T05:17:41.740Z,929.32
2017-03-07T05:18:09.843Z,929.3
2017-03-07T05:18:38.015Z,929.28
2017-03-07T05:19:06.259Z,929.31
2017-03-07T05:19:34.492Z,929.3
2017-03-07T05:20:02.620Z,929.29
2017-03-07T05:20:30.793Z,929.29
2017-03-07T05:20:58.890Z,929.28
2017-03-07T05:21:27.176Z,929.27
2017-03-07T05:21:55.521Z,929.29
2017-03-07T05:22:23.727Z,929.28
2017-03-07T05:22:52.068Z,929.26
2017-03-07T05:23:20.286Z,929.28
2017-03-07T05:23:48.448Z,929.24
2017-03-07T05:24:16.543Z,929.24
2017-03-07T05:24:44.804Z,929.24
2017-03-07T05:25:12.816Z,929.28
2017-03-07T05:25:41.038Z,929.24
2017-03-07T05:26:09.264Z,929.26
2017-03-07T05:26:37.496Z,929.27
2017-03-07T05:27:05.668Z,929.3
2017-03-07T05:27:33.865Z,929.28
2017-03-07T05:28:02.027Z,929.27
2017-03-07T05:28:30.303Z,929.24
2017-03-07T05:28:58.451Z,929.25
2017-03-07T05:29:26.546Z,929.27
2017-03-07T05:29:54.451Z,929.26
2017-03-07T05:30:22.553Z,929.27
2017-03-07T05:30:50.714Z,929.29
2017-03-07T05:31:18.876Z,929.29
2017-03-07T05:31:47.067Z,929.3
2017-03-07T05:32:15.355Z,929.27
2017-03-07T05:32:43.523Z,929.29
2017-03-07T05:33:11.859Z,929.31
2017-03-07T05:33:40.067Z,929.28
2017-03-07T05:34:08.181Z,929.27
2017-03-07T05:34:36.221Z,929.28
2017-03-07T05:35:04.407Z,929.27
2017-03-07T05:35:32.610Z,929.29
2017-03-07T05:36:00.932Z,929.3
2017-03-07T05:36:29.071Z,929.3
2017-03-07T05:36:57.356Z,929.28
2017-03-07T05:37:25.585Z,929.31
2017-03-07T05:37:53.853Z,929.29
2017-03-07T05:38:22.058Z,929.3
2017-03-07T05:38:50.301Z,929.29
2017-03-07T05:39:18.340Z,929.3
2017-03-07T05:39:46.528Z,929.29
2017-03-07T05:40:14.738Z,929.3
2017-03-07T05:40:42.977Z,929.28
2017-03-07T05:41:11.165Z,929.28
2017-03-07T05:41:39.379Z,929.3
2017-03-07T05:42:07.513Z,929.28
2017-03-07T05:42:35.719Z,929.27
2017-03-07T05:43:03.954Z,929.28
2017-03-07T05:43:32.111Z,929.25
2017-03-07T05:44:00.079Z,929.24
2017-03-07T05:44:28.205Z,929.25
2017-03-07T05:44:56.483Z,929.24
2017-03-07T05:45:24.720Z,929.25
2017-03-07T05:45:52.838Z,929.24
2017-03-07T05:46:21.020Z,929.2
2017-03-07T05:46:49.310Z,929.23
2017-03-07T05:47:17.540Z,929.21
2017-03-07T05:47:45.653Z,929.17
2017-03-07T05:48:14.291Z,929.19
2017-03-07T05:48:42.405Z,929.19
2017-03-07T05:49:10.714Z,929.19
2017-03-07T05:49:38.941Z,929.19
2017-03-07T05:50:07.012Z,929.12
2017-03-07T05:50:35.297Z,929.12
2017-03-07T05:51:03.486Z,929.11
2017-03-07T05:51:31.715Z,929.09
2017-03-07T05:51:59.725Z,929.04
2017-03-07T05:52:27.868Z,929.07
2017-03-07T05:52:56.132Z,929.01
2017-03-07T05:53:24.576Z,928.99
2017-03-07T05:53:52.567Z,928.99